Terminal Aerodrome Forecast
Issued by NWS

Home | Current Version | Previous Version | Text Only | Print | Product List | Glossary On
Versions: 1 2 3 4 5 6 7 8 9 10 11 12 13 14 15 16 17 18 19 20 21 22
000
FTUS42 KGSP 312300
TAFHKY
TAF
KHKY 312339Z 0100/0124 08003KT P6SM OVC090
     FM010200 00000KT P6SM -SHRA OVC060
     FM010600 01004KT 4SM -SHRA BR OVC018
     FM010800 03005KT 4SM SHRA BR OVC009
     FM011000 04005KT 4SM SHRA BR OVC006
     FM011500 06006KT 5SM -SHRA OVC016
     FM012000 06006KT P6SM -SHRA VCTS OVC022CB PROB30 0120/0124 4SM
      TSRA OVC012CB=

USA.gov is the U.S. government's official web portal to all federal, state and local government web resources and services.